sensor_id;sensor_type;location;lat;lon;timestamp;pressure;altitude;pressure_sealevel;temperature;humidity
20987;BME280;10652;50.306;8.570;2023-08-12T00:00:48;98205.78;;;17.63;94.14
20987;BME280;10652;50.306;8.570;2023-08-12T00:04:50;98197.72;;;17.64;94.42
20987;BME280;10652;50.306;8.570;2023-08-12T00:08:52;98201.84;;;17.68;94.24
20987;BME280;10652;50.306;8.570;2023-08-12T00:12:55;98201.31;;;17.76;94.82
20987;BME280;10652;50.306;8.570;2023-08-12T00:16:57;98196.38;;;17.82;94.04
20987;BME280;10652;50.306;8.570;2023-08-12T00:20:59;98190.72;;;17.87;94.16
20987;BME280;10652;50.306;8.570;2023-08-12T00:25:01;98180.81;;;17.89;94.27
20987;BME280;10652;50.306;8.570;2023-08-12T00:29:03;98182.28;;;17.93;94.14
20987;BME280;10652;50.306;8.570;2023-08-12T00:33:06;98171.41;;;17.96;95.26
20987;BME280;10652;50.306;8.570;2023-08-12T00:37:10;98178.09;;;18.02;96.24
20987;BME280;10652;50.306;8.570;2023-08-12T00:41:13;98174.13;;;18.07;97.21
20987;BME280;10652;50.306;8.570;2023-08-12T00:45:15;98163.34;;;18.09;98.21
20987;BME280;10652;50.306;8.570;2023-08-12T00:49:17;98149.00;;;18.11;98.56
20987;BME280;10652;50.306;8.570;2023-08-12T00:53:20;98141.28;;;18.19;98.96
20987;BME280;10652;50.306;8.570;2023-08-12T00:57:22;98148.34;;;18.31;98.72
20987;BME280;10652;50.306;8.570;2023-08-12T01:01:24;98142.66;;;18.36;98.79
20987;BME280;10652;50.306;8.570;2023-08-12T01:05:26;98142.81;;;18.46;98.35
20987;BME280;10652;50.306;8.570;2023-08-12T01:09:30;98135.56;;;18.48;98.66
20987;BME280;10652;50.306;8.570;2023-08-12T01:14:03;98126.28;;;18.53;99.15
20987;BME280;10652;50.306;8.570;2023-08-12T01:18:08;98130.13;;;18.60;98.60
20987;BME280;10652;50.306;8.570;2023-08-12T01:22:12;98125.66;;;18.61;97.50
20987;BME280;10652;50.306;8.570;2023-08-12T01:26:14;98123.72;;;18.63;95.70
20987;BME280;10652;50.306;8.570;2023-08-12T01:30:18;98116.09;;;18.58;94.75
20987;BME280;10652;50.306;8.570;2023-08-12T01:38:28;98118.03;;;18.56;94.75
20987;BME280;10652;50.306;8.570;2023-08-12T01:42:34;98115.00;;;18.61;94.01
20987;BME280;10652;50.306;8.570;2023-08-12T01:46:37;98107.88;;;18.61;93.87
20987;BME280;10652;50.306;8.570;2023-08-12T01:50:39;98104.47;;;18.59;93.83
20987;BME280;10652;50.306;8.570;2023-08-12T01:54:42;98104.84;;;18.55;94.31
20987;BME280;10652;50.306;8.570;2023-08-12T01:58:44;98110.16;;;18.55;95.23
20987;BME280;10652;50.306;8.570;2023-08-12T02:02:46;98121.41;;;18.58;95.52
20987;BME280;10652;50.306;8.570;2023-08-12T02:06:49;98114.75;;;18.64;95.44
20987;BME280;10652;50.306;8.570;2023-08-12T02:10:51;98119.09;;;18.76;92.86
20987;BME280;10652;50.306;8.570;2023-08-12T02:14:53;98114.28;;;18.92;92.12
20987;BME280;10652;50.306;8.570;2023-08-12T02:18:55;98107.97;;;19.04;91.31
20987;BME280;10652;50.306;8.570;2023-08-12T02:22:57;98121.06;;;19.07;91.22
20987;BME280;10652;50.306;8.570;2023-08-12T02:26:59;98124.09;;;19.03;91.75
20987;BME280;10652;50.306;8.570;2023-08-12T02:31:02;98134.25;;;18.98;93.62
20987;BME280;10652;50.306;8.570;2023-08-12T02:35:04;98146.72;;;18.97;93.61
20987;BME280;10652;50.306;8.570;2023-08-12T02:39:06;98166.81;;;19.01;94.11
20987;BME280;10652;50.306;8.570;2023-08-12T02:43:08;98172.47;;;19.08;94.20
20987;BME280;10652;50.306;8.570;2023-08-12T02:47:12;98174.06;;;19.10;94.80
20987;BME280;10652;50.306;8.570;2023-08-12T02:51:15;98187.38;;;19.10;95.47
20987;BME280;10652;50.306;8.570;2023-08-12T02:55:17;98187.38;;;19.10;95.77
20987;BME280;10652;50.306;8.570;2023-08-12T02:59:19;98185.66;;;19.09;96.39
20987;BME280;10652;50.306;8.570;2023-08-12T03:03:21;98198.03;;;19.10;97.26
20987;BME280;10652;50.306;8.570;2023-08-12T03:07:24;98203.47;;;19.09;99.11
20987;BME280;10652;50.306;8.570;2023-08-12T03:11:26;98201.91;;;19.06;100.00
20987;BME280;10652;50.306;8.570;2023-08-12T03:15:30;98210.09;;;19.03;100.00
20987;BME280;10652;50.306;8.570;2023-08-12T03:19:33;98190.88;;;19.00;100.00
20987;BME280;10652;50.306;8.570;2023-08-12T03:23:35;98200.06;;;18.96;100.00
20987;BME280;10652;50.306;8.570;2023-08-12T03:27:40;98172.97;;;18.91;100.00
20987;BME280;10652;50.306;8.570;2023-08-12T03:31:44;98171.88;;;18.82;100.00
20987;BME280;10652;50.306;8.570;2023-08-12T03:35:48;98179.16;;;18.80;100.00
20987;BME280;10652;50.306;8.570;2023-08-12T03:39:50;98193.41;;;18.79;100.00
20987;BME280;10652;50.306;8.570;2023-08-12T03:43:52;98190.88;;;18.77;100.00
20987;BME280;10652;50.306;8.570;2023-08-12T03:47:55;98186.03;;;18.71;100.00
20987;BME280;10652;50.306;8.570;2023-08-12T03:51:57;98186.50;;;18.65;100.00
20987;BME280;10652;50.306;8.570;2023-08-12T03:56:00;98196.53;;;18.62;100.00
20987;BME280;10652;50.306;8.570;2023-08-12T04:00:04;98205.03;;;18.67;100.00
20987;BME280;10652;50.306;8.570;2023-08-12T04:04:15;98197.75;;;18.69;100.00
20987;BME280;10652;50.306;8.570;2023-08-12T04:08:22;98174.53;;;18.71;100.00
20987;BME280;10652;50.306;8.570;2023-08-12T04:12:24;98166.19;;;18.53;100.00
20987;BME280;10652;50.306;8.570;2023-08-12T04:16:27;98144.91;;;18.53;100.00
20987;BME280;10652;50.306;8.570;2023-08-12T04:20:29;98124.91;;;18.36;100.00
20987;BME280;10652;50.306;8.570;2023-08-12T04:24:32;98128.59;;;18.23;100.00
20987;BME280;10652;50.306;8.570;2023-08-12T04:28:34;98122.31;;;18.24;100.00
20987;BME280;10652;50.306;8.570;2023-08-12T04:32:36;98118.44;;;18.28;100.00
20987;BME280;10652;50.306;8.570;2023-08-12T04:36:39;98105.44;;;18.36;100.00
20987;BME280;10652;50.306;8.570;2023-08-12T04:40:45;98109.31;;;18.43;100.00
20987;BME280;10652;50.306;8.570;2023-08-12T04:44:47;98098.31;;;18.48;100.00
20987;BME280;10652;50.306;8.570;2023-08-12T04:48:50;98099.78;;;18.52;100.00
20987;BME280;10652;50.306;8.570;2023-08-12T04:52:52;98083.56;;;18.55;100.00
20987;BME280;10652;50.306;8.570;2023-08-12T04:56:54;98079.81;;;18.57;100.00
20987;BME280;10652;50.306;8.570;2023-08-12T05:00:58;98090.31;;;18.59;100.00
20987;BME280;10652;50.306;8.570;2023-08-12T05:05:00;98075.09;;;18.61;100.00
20987;BME280;10652;50.306;8.570;2023-08-12T05:09:03;98081.25;;;18.50;100.00
20987;BME280;10652;50.306;8.570;2023-08-12T05:13:06;98085.88;;;18.48;100.00
20987;BME280;10652;50.306;8.570;2023-08-12T05:17:09;98078.84;;;18.58;100.00
20987;BME280;10652;50.306;8.570;2023-08-12T05:21:12;98073.16;;;18.74;100.00
20987;BME280;10652;50.306;8.570;2023-08-12T05:25:16;98077.13;;;18.91;100.00
20987;BME280;10652;50.306;8.570;2023-08-12T05:29:18;98074.31;;;19.03;100.00
20987;BME280;10652;50.306;8.570;2023-08-12T05:33:21;98076.50;;;19.20;100.00
20987;BME280;10652;50.306;8.570;2023-08-12T05:37:24;98062.94;;;19.23;100.00
20987;BME280;10652;50.306;8.570;2023-08-12T05:41:26;98067.88;;;19.28;100.00
20987;BME280;10652;50.306;8.570;2023-08-12T05:45:28;98066.63;;;19.43;100.00
20987;BME280;10652;50.306;8.570;2023-08-12T05:49:30;98075.00;;;19.70;100.00
20987;BME280;10652;50.306;8.570;2023-08-12T05:53:32;98084.22;;;19.98;100.00
20987;BME280;10652;50.306;8.570;2023-08-12T05:57:35;98071.72;;;20.20;100.00
20987;BME280;10652;50.306;8.570;2023-08-12T06:01:37;98079.19;;;20.56;100.00
20987;BME280;10652;50.306;8.570;2023-08-12T06:05:40;98080.78;;;20.89;100.00
20987;BME280;10652;50.306;8.570;2023-08-12T06:09:42;98074.94;;;24.88;100.00
20987;BME280;10652;50.306;8.570;2023-08-12T06:13:44;98081.03;;;29.06;75.94
20987;BME280;10652;50.306;8.570;2023-08-12T06:17:46;98084.69;;;31.65;57.68
20987;BME280;10652;50.306;8.570;2023-08-12T06:21:49;98086.97;;;33.25;49.01
20987;BME280;10652;50.306;8.570;2023-08-12T06:25:51;98100.84;;;34.63;44.77
20987;BME280;10652;50.306;8.570;2023-08-12T06:29:53;98102.97;;;35.40;42.69
20987;BME280;10652;50.306;8.570;2023-08-12T06:33:55;98093.84;;;36.24;40.56
20987;BME280;10652;50.306;8.570;2023-08-12T06:37:57;98092.19;;;35.63;40.15
20987;BME280;10652;50.306;8.570;2023-08-12T06:41:59;98107.63;;;32.82;43.15
20987;BME280;10652;50.306;8.570;2023-08-12T06:46:01;98106.47;;;31.30;46.72
20987;BME280;10652;50.306;8.570;2023-08-12T06:50:04;98097.53;;;32.04;47.33
20987;BME280;10652;50.306;8.570;2023-08-12T06:54:06;98109.34;;;30.32;47.76
20987;BME280;10652;50.306;8.570;2023-08-12T06:58:08;98114.97;;;29.23;49.34
20987;BME280;10652;50.306;8.570;2023-08-12T07:02:10;98107.19;;;27.78;52.55
20987;BME280;10652;50.306;8.570;2023-08-12T07:06:13;98110.72;;;26.29;58.53
20987;BME280;10652;50.306;8.570;2023-08-12T07:10:15;98104.28;;;26.55;60.89
20987;BME280;10652;50.306;8.570;2023-08-12T07:14:17;98107.22;;;26.21;63.12
20987;BME280;10652;50.306;8.570;2023-08-12T07:18:19;98110.38;;;26.41;65.33
20987;BME280;10652;50.306;8.570;2023-08-12T07:22:22;98106.66;;;26.01;65.18
20987;BME280;10652;50.306;8.570;2023-08-12T07:26:24;98116.34;;;25.54;67.64
20987;BME280;10652;50.306;8.570;2023-08-12T07:30:26;98116.41;;;25.28;68.79
20987;BME280;10652;50.306;8.570;2023-08-12T07:34:29;98114.47;;;25.04;70.58
20987;BME280;10652;50.306;8.570;2023-08-12T07:38:32;98105.38;;;24.97;70.28
20987;BME280;10652;50.306;8.570;2023-08-12T07:42:34;98107.09;;;24.54;72.43
20987;BME280;10652;50.306;8.570;2023-08-12T07:46:36;98119.31;;;24.05;75.48
20987;BME280;10652;50.306;8.570;2023-08-12T07:50:39;98126.28;;;23.63;78.25
20987;BME280;10652;50.306;8.570;2023-08-12T07:54:41;98116.22;;;23.47;81.10
20987;BME280;10652;50.306;8.570;2023-08-12T07:58:43;98110.44;;;23.42;83.08
20987;BME280;10652;50.306;8.570;2023-08-12T08:02:47;98118.09;;;23.37;84.63
20987;BME280;10652;50.306;8.570;2023-08-12T08:06:49;98102.09;;;23.45;86.83
20987;BME280;10652;50.306;8.570;2023-08-12T08:10:52;98115.34;;;23.56;85.84
20987;BME280;10652;50.306;8.570;2023-08-12T08:14:54;98123.53;;;23.45;85.89
20987;BME280;10652;50.306;8.570;2023-08-12T08:18:56;98131.66;;;23.36;86.95
20987;BME280;10652;50.306;8.570;2023-08-12T08:22:59;98114.84;;;23.16;89.93
20987;BME280;10652;50.306;8.570;2023-08-12T08:27:01;98104.00;;;23.08;89.61
20987;BME280;10652;50.306;8.570;2023-08-12T08:31:06;98102.03;;;23.10;85.13
20987;BME280;10652;50.306;8.570;2023-08-12T08:35:08;98107.03;;;23.22;86.22
20987;BME280;10652;50.306;8.570;2023-08-12T08:39:10;98101.56;;;23.42;87.21
20987;BME280;10652;50.306;8.570;2023-08-12T08:43:15;98102.53;;;23.68;87.33
20987;BME280;10652;50.306;8.570;2023-08-12T08:47:19;98115.41;;;24.00;84.74
20987;BME280;10652;50.306;8.570;2023-08-12T08:51:25;98091.47;;;24.24;84.89
20987;BME280;10652;50.306;8.570;2023-08-12T08:55:28;98103.22;;;24.49;82.98
20987;BME280;10652;50.306;8.570;2023-08-12T08:59:30;98108.69;;;24.39;83.43
20987;BME280;10652;50.306;8.570;2023-08-12T09:03:35;98109.00;;;24.36;83.31
20987;BME280;10652;50.306;8.570;2023-08-12T09:07:40;98094.72;;;24.36;81.87
20987;BME280;10652;50.306;8.570;2023-08-12T09:11:42;98098.78;;;24.40;81.55
20987;BME280;10652;50.306;8.570;2023-08-12T09:15:47;98095.94;;;24.41;81.70
20987;BME280;10652;50.306;8.570;2023-08-12T09:19:50;98100.03;;;24.53;82.82
20987;BME280;10652;50.306;8.570;2023-08-12T09:23:52;98089.94;;;24.73;79.06
20987;BME280;10652;50.306;8.570;2023-08-12T09:27:55;98083.44;;;24.84;78.30
20987;BME280;10652;50.306;8.570;2023-08-12T09:32:11;98084.00;;;24.62;77.94
20987;BME280;10652;50.306;8.570;2023-08-12T09:36:15;98083.94;;;24.28;80.14
20987;BME280;10652;50.306;8.570;2023-08-12T09:40:17;98089.16;;;24.11;82.35
20987;BME280;10652;50.306;8.570;2023-08-12T09:44:20;98077.88;;;24.08;81.78
20987;BME280;10652;50.306;8.570;2023-08-12T09:48:25;98071.56;;;24.17;83.16
20987;BME280;10652;50.306;8.570;2023-08-12T09:52:28;98069.25;;;24.40;82.84
20987;BME280;10652;50.306;8.570;2023-08-12T09:56:33;98079.53;;;24.78;82.26
20987;BME280;10652;50.306;8.570;2023-08-12T10:00:38;98073.34;;;25.12;77.76
20987;BME280;10652;50.306;8.570;2023-08-12T10:04:45;98068.75;;;25.54;78.06
20987;BME280;10652;50.306;8.570;2023-08-12T10:08:48;98077.38;;;25.66;77.50
20987;BME280;10652;50.306;8.570;2023-08-12T10:12:51;98073.66;;;25.67;77.14
20987;BME280;10652;50.306;8.570;2023-08-12T10:16:54;98075.59;;;25.40;76.35
20987;BME280;10652;50.306;8.570;2023-08-12T10:21:09;98076.53;;;25.07;77.16
20987;BME280;10652;50.306;8.570;2023-08-12T10:25:13;98085.72;;;24.96;77.04
20987;BME280;10652;50.306;8.570;2023-08-12T10:29:15;98106.19;;;24.72;76.97
20987;BME280;10652;50.306;8.570;2023-08-12T10:33:18;98132.56;;;24.42;76.52
20987;BME280;10652;50.306;8.570;2023-08-12T10:37:20;98134.34;;;24.16;76.73
20987;BME280;10652;50.306;8.570;2023-08-12T10:41:24;98140.25;;;23.84;79.83
20987;BME280;10652;50.306;8.570;2023-08-12T10:45:52;98137.72;;;23.38;83.38
20987;BME280;10652;50.306;8.570;2023-08-12T10:49:54;98141.84;;;23.05;85.22
20987;BME280;10652;50.306;8.570;2023-08-12T10:54:13;98138.09;;;22.78;86.54
20987;BME280;10652;50.306;8.570;2023-08-12T10:58:33;98121.97;;;22.51;89.05
20987;BME280;10652;50.306;8.570;2023-08-12T11:02:36;98121.91;;;22.24;91.57
20987;BME280;10652;50.306;8.570;2023-08-12T11:06:46;98101.44;;;22.04;94.37
20987;BME280;10652;50.306;8.570;2023-08-12T11:10:48;98099.78;;;21.93;97.13
20987;BME280;10652;50.306;8.570;2023-08-12T11:14:53;98090.50;;;21.87;98.71
20987;BME280;10652;50.306;8.570;2023-08-12T11:18:55;98053.91;;;21.78;100.00
20987;BME280;10652;50.306;8.570;2023-08-12T11:22:58;98020.66;;;21.71;100.00
20987;BME280;10652;50.306;8.570;2023-08-12T11:27:01;98032.50;;;21.69;100.00
20987;BME280;10652;50.306;8.570;2023-08-12T11:31:04;98032.94;;;21.83;100.00
20987;BME280;10652;50.306;8.570;2023-08-12T11:35:07;98036.94;;;22.26;100.00
20987;BME280;10652;50.306;8.570;2023-08-12T11:39:10;98016.25;;;22.83;99.22
20987;BME280;10652;50.306;8.570;2023-08-12T11:43:12;98002.03;;;23.09;96.42
20987;BME280;10652;50.306;8.570;2023-08-12T11:47:14;97998.81;;;23.06;92.17
20987;BME280;10652;50.306;8.570;2023-08-12T11:51:17;98015.81;;;23.14;92.08
20987;BME280;10652;50.306;8.570;2023-08-12T11:55:19;98026.00;;;23.11;88.47
20987;BME280;10652;50.306;8.570;2023-08-12T11:59:22;98032.03;;;23.13;88.92
20987;BME280;10652;50.306;8.570;2023-08-12T12:03:27;98046.31;;;23.31;89.08
20987;BME280;10652;50.306;8.570;2023-08-12T12:07:31;98058.31;;;23.54;87.68
20987;BME280;10652;50.306;8.570;2023-08-12T12:11:33;98069.50;;;23.67;86.44
20987;BME280;10652;50.306;8.570;2023-08-12T12:15:41;98067.50;;;23.70;86.83
20987;BME280;10652;50.306;8.570;2023-08-12T12:19:43;98059.22;;;23.81;87.70
20987;BME280;10652;50.306;8.570;2023-08-12T12:23:46;98057.59;;;23.88;88.07
20987;BME280;10652;50.306;8.570;2023-08-12T12:27:48;98051.84;;;23.83;86.50
20987;BME280;10652;50.306;8.570;2023-08-12T12:31:50;98052.69;;;23.83;87.87
20987;BME280;10652;50.306;8.570;2023-08-12T12:35:52;98056.84;;;23.78;88.74
20987;BME280;10652;50.306;8.570;2023-08-12T12:40:00;98060.59;;;23.85;88.57
20987;BME280;10652;50.306;8.570;2023-08-12T12:44:03;98067.78;;;24.02;85.96
20987;BME280;10652;50.306;8.570;2023-08-12T12:48:05;98075.88;;;24.28;84.01
20987;BME280;10652;50.306;8.570;2023-08-12T12:52:08;98080.69;;;24.42;84.56
20987;BME280;10652;50.306;8.570;2023-08-12T12:56:10;98070.34;;;24.55;85.15
20987;BME280;10652;50.306;8.570;2023-08-12T13:00:12;98065.91;;;24.72;81.88
20987;BME280;10652;50.306;8.570;2023-08-12T13:04:15;98074.22;;;24.86;80.81
20987;BME280;10652;50.306;8.570;2023-08-12T13:08:17;98057.91;;;24.80;81.12
20987;BME280;10652;50.306;8.570;2023-08-12T13:12:19;98051.03;;;24.85;80.29
20987;BME280;10652;50.306;8.570;2023-08-12T13:16:21;98052.28;;;24.99;78.65
20987;BME280;10652;50.306;8.570;2023-08-12T13:20:23;98033.16;;;25.10;74.12
20987;BME280;10652;50.306;8.570;2023-08-12T13:24:26;98024.28;;;25.18;71.01
20987;BME280;10652;50.306;8.570;2023-08-12T13:28:28;98022.41;;;25.18;68.35
20987;BME280;10652;50.306;8.570;2023-08-12T13:32:31;98020.94;;;25.24;68.71
20987;BME280;10652;50.306;8.570;2023-08-12T13:36:34;98031.69;;;25.32;66.49
20987;BME280;10652;50.306;8.570;2023-08-12T13:40:36;98028.84;;;25.33;66.73
20987;BME280;10652;50.306;8.570;2023-08-12T13:44:38;98038.56;;;25.26;65.86
20987;BME280;10652;50.306;8.570;2023-08-12T13:48:41;98042.28;;;25.25;65.72
20987;BME280;10652;50.306;8.570;2023-08-12T13:52:45;98038.31;;;25.54;66.07
20987;BME280;10652;50.306;8.570;2023-08-12T13:56:48;98047.59;;;26.00;63.91
20987;BME280;10652;50.306;8.570;2023-08-12T14:00:50;98034.81;;;25.77;62.50
20987;BME280;10652;50.306;8.570;2023-08-12T14:04:52;98034.31;;;25.66;64.20
20987;BME280;10652;50.306;8.570;2023-08-12T14:08:55;98030.28;;;25.62;63.88
20987;BME280;10652;50.306;8.570;2023-08-12T14:12:57;98023.53;;;25.74;63.58
20987;BME280;10652;50.306;8.570;2023-08-12T14:16:59;98021.34;;;25.77;64.63
20987;BME280;10652;50.306;8.570;2023-08-12T14:21:01;98019.16;;;25.57;64.87
20987;BME280;10652;50.306;8.570;2023-08-12T14:25:03;98004.16;;;25.46;66.14
20987;BME280;10652;50.306;8.570;2023-08-12T14:29:07;98018.78;;;25.43;64.68
20987;BME280;10652;50.306;8.570;2023-08-12T14:33:09;98021.28;;;25.45;65.03
20987;BME280;10652;50.306;8.570;2023-08-12T14:37:12;98019.16;;;25.57;64.68
20987;BME280;10652;50.306;8.570;2023-08-12T14:41:15;97999.00;;;25.53;65.06
20987;BME280;10652;50.306;8.570;2023-08-12T14:45:17;97991.88;;;25.43;65.88
20987;BME280;10652;50.306;8.570;2023-08-12T14:49:19;97985.19;;;25.56;65.21
20987;BME280;10652;50.306;8.570;2023-08-12T14:53:21;97984.47;;;25.46;64.78
20987;BME280;10652;50.306;8.570;2023-08-12T14:57:24;97974.88;;;25.27;65.19
20987;BME280;10652;50.306;8.570;2023-08-12T15:01:26;97974.38;;;25.39;66.80
20987;BME280;10652;50.306;8.570;2023-08-12T15:05:30;97971.38;;;25.83;65.50
20987;BME280;10652;50.306;8.570;2023-08-12T15:09:32;97982.66;;;25.86;63.84
20987;BME280;10652;50.306;8.570;2023-08-12T15:13:34;97980.81;;;25.79;63.43
20987;BME280;10652;50.306;8.570;2023-08-12T15:17:36;97985.19;;;25.72;63.34
20987;BME280;10652;50.306;8.570;2023-08-12T15:21:38;97982.16;;;25.75;63.09
20987;BME280;10652;50.306;8.570;2023-08-12T15:25:43;97987.56;;;25.75;63.82
20987;BME280;10652;50.306;8.570;2023-08-12T15:29:46;97999.28;;;25.90;63.27
20987;BME280;10652;50.306;8.570;2023-08-12T15:33:48;97996.63;;;25.98;61.75
20987;BME280;10652;50.306;8.570;2023-08-12T15:37:50;98002.84;;;25.82;61.64
20987;BME280;10652;50.306;8.570;2023-08-12T15:41:52;97999.16;;;25.59;62.66
20987;BME280;10652;50.306;8.570;2023-08-12T15:45:54;98001.97;;;25.41;62.91
20987;BME280;10652;50.306;8.570;2023-08-12T15:49:56;97994.88;;;25.32;63.49
20987;BME280;10652;50.306;8.570;2023-08-12T15:53:58;97999.91;;;25.19;63.24
20987;BME280;10652;50.306;8.570;2023-08-12T15:58:01;98008.25;;;24.92;63.57
20987;BME280;10652;50.306;8.570;2023-08-12T16:02:03;98014.34;;;24.76;64.37
20987;BME280;10652;50.306;8.570;2023-08-12T16:06:05;98019.84;;;24.67;65.19
20987;BME280;10652;50.306;8.570;2023-08-12T16:10:07;98017.97;;;24.59;66.08
20987;BME280;10652;50.306;8.570;2023-08-12T16:14:09;98033.06;;;24.52;66.62
20987;BME280;10652;50.306;8.570;2023-08-12T16:18:11;98018.06;;;24.41;66.65
20987;BME280;10652;50.306;8.570;2023-08-12T16:22:14;98019.38;;;24.37;66.53
20987;BME280;10652;50.306;8.570;2023-08-12T16:26:16;98010.63;;;24.35;66.76
20987;BME280;10652;50.306;8.570;2023-08-12T16:30:22;98020.84;;;24.32;67.01
20987;BME280;10652;50.306;8.570;2023-08-12T16:34:24;98033.78;;;24.28;68.75
20987;BME280;10652;50.306;8.570;2023-08-12T16:38:26;98031.69;;;24.22;71.41
20987;BME280;10652;50.306;8.570;2023-08-12T16:42:28;98025.56;;;24.12;73.38
20987;BME280;10652;50.306;8.570;2023-08-12T16:46:30;98024.00;;;24.01;74.22
20987;BME280;10652;50.306;8.570;2023-08-12T16:50:33;98037.03;;;23.96;73.69
20987;BME280;10652;50.306;8.570;2023-08-12T16:54:35;98039.34;;;23.91;72.73
20987;BME280;10652;50.306;8.570;2023-08-12T16:58:37;98031.66;;;23.96;73.19
20987;BME280;10652;50.306;8.570;2023-08-12T17:02:41;98033.41;;;24.05;73.09
20987;BME280;10652;50.306;8.570;2023-08-12T17:06:43;98036.28;;;24.12;73.14
20987;BME280;10652;50.306;8.570;2023-08-12T17:10:45;98043.34;;;24.13;74.02
20987;BME280;10652;50.306;8.570;2023-08-12T17:14:47;98043.88;;;24.17;74.62
20987;BME280;10652;50.306;8.570;2023-08-12T17:18:49;98050.78;;;24.19;73.55
20987;BME280;10652;50.306;8.570;2023-08-12T17:22:52;98045.16;;;24.04;72.37
20987;BME280;10652;50.306;8.570;2023-08-12T17:26:54;98042.81;;;23.84;73.13
20987;BME280;10652;50.306;8.570;2023-08-12T17:30:56;98042.66;;;23.67;74.57
20987;BME280;10652;50.306;8.570;2023-08-12T17:34:58;98048.94;;;23.58;75.10
20987;BME280;10652;50.306;8.570;2023-08-12T17:39:00;98037.81;;;23.53;75.98
20987;BME280;10652;50.306;8.570;2023-08-12T17:43:02;98038.38;;;23.39;75.75
20987;BME280;10652;50.306;8.570;2023-08-12T17:47:05;98034.13;;;23.19;76.38
20987;BME280;10652;50.306;8.570;2023-08-12T17:51:07;98032.41;;;23.00;77.97
20987;BME280;10652;50.306;8.570;2023-08-12T17:55:14;98030.19;;;22.96;78.63
20987;BME280;10652;50.306;8.570;2023-08-12T17:59:17;98035.03;;;22.83;79.22
20987;BME280;10652;50.306;8.570;2023-08-12T18:03:19;98030.56;;;22.73;80.58
20987;BME280;10652;50.306;8.570;2023-08-12T18:07:21;98035.09;;;22.63;80.98
20987;BME280;10652;50.306;8.570;2023-08-12T18:11:23;98036.72;;;22.47;81.53
20987;BME280;10652;50.306;8.570;2023-08-12T18:15:25;98047.06;;;22.32;82.50
20987;BME280;10652;50.306;8.570;2023-08-12T18:19:35;98052.28;;;22.14;82.44
20987;BME280;10652;50.306;8.570;2023-08-12T18:23:38;98060.75;;;22.00;84.31
20987;BME280;10652;50.306;8.570;2023-08-12T18:27:40;98046.00;;;21.86;84.57
20987;BME280;10652;50.306;8.570;2023-08-12T18:31:42;98040.81;;;21.75;85.44
20987;BME280;10652;50.306;8.570;2023-08-12T18:35:44;98046.31;;;21.64;87.01
20987;BME280;10652;50.306;8.570;2023-08-12T18:39:46;98049.41;;;21.50;88.05
20987;BME280;10652;50.306;8.570;2023-08-12T18:43:48;98054.16;;;21.37;89.17
20987;BME280;10652;50.306;8.570;2023-08-12T18:47:50;98051.75;;;21.24;89.66
20987;BME280;10652;50.306;8.570;2023-08-12T18:51:53;98052.69;;;21.14;89.51
20987;BME280;10652;50.306;8.570;2023-08-12T18:55:55;98062.50;;;21.03;90.05
20987;BME280;10652;50.306;8.570;2023-08-12T19:00:03;98072.34;;;20.93;89.89
20987;BME280;10652;50.306;8.570;2023-08-12T19:04:07;98076.53;;;20.86;90.34
20987;BME280;10652;50.306;8.570;2023-08-12T19:08:09;98086.59;;;20.73;91.35
20987;BME280;10652;50.306;8.570;2023-08-12T19:12:17;98089.19;;;20.63;91.53
20987;BME280;10652;50.306;8.570;2023-08-12T19:16:20;98104.19;;;20.55;92.02
20987;BME280;10652;50.306;8.570;2023-08-12T19:20:22;98105.72;;;20.48;92.39
20987;BME280;10652;50.306;8.570;2023-08-12T19:24:25;98108.06;;;20.41;93.17
20987;BME280;10652;50.306;8.570;2023-08-12T19:28:27;98107.75;;;20.35;93.44
20987;BME280;10652;50.306;8.570;2023-08-12T19:32:29;98116.41;;;20.27;94.19
20987;BME280;10652;50.306;8.570;2023-08-12T19:36:31;98123.38;;;20.18;95.14
20987;BME280;10652;50.306;8.570;2023-08-12T19:40:33;98127.78;;;20.08;96.27
20987;BME280;10652;50.306;8.570;2023-08-12T19:44:35;98130.63;;;19.96;96.97
20987;BME280;10652;50.306;8.570;2023-08-12T19:48:37;98131.84;;;19.92;98.17
20987;BME280;10652;50.306;8.570;2023-08-12T19:52:40;98141.56;;;19.82;98.78
20987;BME280;10652;50.306;8.570;2023-08-12T19:56:42;98144.03;;;19.73;99.74
20987;BME280;10652;50.306;8.570;2023-08-12T20:00:44;98154.22;;;19.68;100.00
20987;BME280;10652;50.306;8.570;2023-08-12T20:04:46;98162.38;;;19.56;100.00
20987;BME280;10652;50.306;8.570;2023-08-12T20:08:48;98169.47;;;19.35;100.00
20987;BME280;10652;50.306;8.570;2023-08-12T20:12:51;98173.34;;;19.19;100.00
20987;BME280;10652;50.306;8.570;2023-08-12T20:16:55;98166.69;;;19.14;100.00
20987;BME280;10652;50.306;8.570;2023-08-12T20:20:57;98166.06;;;18.99;100.00
20987;BME280;10652;50.306;8.570;2023-08-12T20:24:59;98170.44;;;19.00;100.00
20987;BME280;10652;50.306;8.570;2023-08-12T20:29:01;98174.78;;;19.01;100.00
20987;BME280;10652;50.306;8.570;2023-08-12T20:33:04;98168.88;;;18.98;100.00
20987;BME280;10652;50.306;8.570;2023-08-12T20:37:07;98168.50;;;19.02;100.00
20987;BME280;10652;50.306;8.570;2023-08-12T20:41:09;98175.75;;;19.11;100.00
20987;BME280;10652;50.306;8.570;2023-08-12T20:45:11;98170.53;;;19.10;100.00
20987;BME280;10652;50.306;8.570;2023-08-12T20:49:16;98176.13;;;19.07;100.00
20987;BME280;10652;50.306;8.570;2023-08-12T20:53:18;98166.81;;;19.01;100.00
20987;BME280;10652;50.306;8.570;2023-08-12T20:57:20;98168.00;;;18.86;100.00
20987;BME280;10652;50.306;8.570;2023-08-12T21:01:22;98183.25;;;18.73;100.00
20987;BME280;10652;50.306;8.570;2023-08-12T21:05:24;98180.78;;;18.59;100.00
20987;BME280;10652;50.306;8.570;2023-08-12T21:09:27;98177.44;;;18.57;100.00
20987;BME280;10652;50.306;8.570;2023-08-12T21:13:29;98173.31;;;18.53;100.00
20987;BME280;10652;50.306;8.570;2023-08-12T21:17:31;98183.66;;;18.45;100.00
20987;BME280;10652;50.306;8.570;2023-08-12T21:21:33;98200.97;;;18.39;100.00
20987;BME280;10652;50.306;8.570;2023-08-12T21:25:36;98203.50;;;18.40;100.00